createdAt,value
2023-05-23T00:01:02.176Z,38782.00
2023-05-23T00:03:31.141Z,38750.09
2023-05-23T00:05:58.968Z,38734.16
2023-05-23T00:08:25.968Z,38778.03
2023-05-23T00:10:52.680Z,38750.09
2023-05-23T00:13:19.754Z,38760.06
2023-05-23T00:15:46.676Z,38738.13
2023-05-23T00:18:13.090Z,38710.22
2023-05-23T00:20:41.572Z,38714.19
2023-05-23T00:23:09.908Z,38718.19
2023-05-23T00:25:37.437Z,38732.16
2023-05-23T00:28:05.066Z,38734.16
2023-05-23T00:30:33.776Z,38752.09
2023-05-23T00:33:00.624Z,38728.16
2023-05-23T00:35:27.502Z,38730.16
2023-05-23T00:37:54.152Z,38734.16
2023-05-23T00:40:21.725Z,38734.16
2023-05-23T00:42:48.453Z,38744.13
2023-05-23T00:45:17.037Z,38742.13
2023-05-23T00:47:45.589Z,38722.19
2023-05-23T00:50:17.242Z,38722.19
2023-05-23T00:52:45.755Z,38744.13
2023-05-23T00:55:13.359Z,38722.19
2023-05-23T00:57:41.227Z,38714.19
2023-05-23T01:00:12.709Z,38722.19
2023-05-23T01:02:43.492Z,38726.16
2023-05-23T01:05:14.402Z,38714.19
2023-05-23T01:07:41.557Z,38718.19
2023-05-23T01:10:10.227Z,38748.09
2023-05-23T01:12:58.029Z,38714.19
2023-05-23T01:15:33.129Z,38752.09
2023-05-23T01:18:08.149Z,38726.16
2023-05-23T01:20:41.497Z,38730.16
2023-05-23T01:23:23.845Z,38746.13
2023-05-23T01:26:03.573Z,38726.16
2023-05-23T01:28:36.613Z,38714.19
2023-05-23T01:31:06.500Z,38730.16
2023-05-23T01:33:35.040Z,38758.06
2023-05-23T01:36:05.256Z,38726.16
2023-05-23T01:38:31.996Z,38730.16
2023-05-23T01:40:59.973Z,38734.16
2023-05-23T01:43:26.446Z,38746.13
2023-05-23T01:45:57.472Z,38738.13
2023-05-23T01:48:27.371Z,38730.16
2023-05-23T01:50:54.222Z,38746.13
2023-05-23T01:53:23.417Z,38736.13
2023-05-23T01:55:51.175Z,38738.13
2023-05-23T01:58:17.901Z,38758.06
2023-05-23T02:00:46.009Z,38742.13
2023-05-23T02:03:12.835Z,38762.06
2023-05-23T02:05:40.387Z,38734.16
2023-05-23T02:08:07.192Z,38736.13
2023-05-23T02:10:34.125Z,38732.16
2023-05-23T02:13:00.950Z,38750.09
2023-05-23T02:15:28.355Z,38750.09
2023-05-23T02:17:54.846Z,38734.16
2023-05-23T02:20:21.331Z,38734.16
2023-05-23T02:22:48.189Z,38724.16
2023-05-23T02:25:15.872Z,38766.06
2023-05-23T02:27:42.391Z,38750.09
2023-05-23T02:30:09.724Z,38754.09
2023-05-23T02:32:37.967Z,38760.06
2023-05-23T02:35:06.116Z,38762.06
2023-05-23T02:37:32.742Z,38766.06
2023-05-23T02:39:59.993Z,38774.03
2023-05-23T02:42:26.534Z,38790.00
2023-05-23T02:44:52.978Z,38770.03
2023-05-23T02:47:19.560Z,38752.09
2023-05-23T02:49:45.999Z,38782.00
2023-05-23T02:52:13.490Z,38766.06
2023-05-23T02:54:40.925Z,38762.06
2023-05-23T02:57:07.369Z,38736.13
2023-05-23T02:59:37.321Z,38758.06
2023-05-23T03:02:03.801Z,38752.09
2023-05-23T03:04:30.362Z,38756.09
2023-05-23T03:06:59.646Z,38722.19
2023-05-23T03:09:26.808Z,38714.19
2023-05-23T03:11:53.413Z,38714.19
2023-05-23T03:14:20.001Z,38706.22
2023-05-23T03:16:48.875Z,38734.16
2023-05-23T03:19:16.120Z,38746.13
2023-05-23T03:21:44.308Z,38706.22
2023-05-23T03:24:11.836Z,38722.19
2023-05-23T03:26:38.722Z,38724.16
2023-05-23T03:29:05.335Z,38708.22
2023-05-23T03:31:32.057Z,38712.22
2023-05-23T03:33:58.710Z,38718.19
2023-05-23T03:36:28.501Z,38718.19
2023-05-23T03:38:55.578Z,38710.22
2023-05-23T03:41:22.177Z,38742.13
2023-05-23T03:43:49.727Z,38734.16
2023-05-23T03:46:16.373Z,38726.16
2023-05-23T03:48:43.768Z,38752.09
2023-05-23T03:51:10.405Z,38766.06
2023-05-23T03:53:36.991Z,38780.03
2023-05-23T03:56:04.594Z,38762.06
2023-05-23T03:58:32.019Z,38772.03
2023-05-23T04:01:03.486Z,38754.09
2023-05-23T04:03:32.778Z,38786.00
2023-05-23T04:06:01.028Z,38793.97
2023-05-23T04:08:29.400Z,38801.97
2023-05-23T04:10:56.620Z,38805.94
2023-05-23T04:13:26.447Z,38797.97
2023-05-23T04:15:56.252Z,38793.97
2023-05-23T04:18:24.020Z,38799.97
2023-05-23T04:20:50.733Z,38825.91
2023-05-23T04:23:17.267Z,38829.88
2023-05-23T04:25:48.363Z,38837.84
2023-05-23T04:28:21.917Z,38825.91
2023-05-23T04:30:49.337Z,38833.88
2023-05-23T04:33:19.758Z,38833.88
2023-05-23T04:35:46.830Z,38837.84
2023-05-23T04:38:13.750Z,38867.78
2023-05-23T04:40:40.485Z,38871.75
2023-05-23T04:43:27.421Z,38841.84
2023-05-23T04:45:57.938Z,38873.75
2023-05-23T04:48:44.722Z,38905.66
2023-05-23T04:51:11.465Z,38885.72
2023-05-23T04:54:01.557Z,38881.75
2023-05-23T04:56:28.946Z,38909.66
2023-05-23T04:58:56.087Z,38913.66
2023-05-23T05:01:26.564Z,38929.59
2023-05-23T05:03:53.619Z,38909.66
2023-05-23T05:06:21.240Z,38925.63
2023-05-23T05:08:48.325Z,38933.59
2023-05-23T05:11:14.919Z,38921.63
2023-05-23T05:13:41.937Z,38929.59
2023-05-23T05:16:08.492Z,38929.59
2023-05-23T05:18:36.297Z,38947.56
2023-05-23T05:21:02.855Z,38943.56
2023-05-23T05:23:31.912Z,38949.56
2023-05-23T05:26:00.797Z,38957.53
2023-05-23T05:28:27.760Z,38957.53
2023-05-23T05:30:54.680Z,38937.59
2023-05-23T05:33:25.949Z,38949.56
2023-05-23T05:36:03.327Z,38925.63
2023-05-23T05:38:30.596Z,38959.53
2023-05-23T05:40:57.102Z,38945.56
2023-05-23T05:43:26.448Z,38923.63
2023-05-23T05:45:53.330Z,38909.66
2023-05-23T05:48:20.187Z,38897.69
2023-05-23T05:50:47.049Z,38921.63
2023-05-23T05:53:14.083Z,38901.69
2023-05-23T05:55:40.961Z,38897.69
2023-05-23T05:58:07.502Z,38897.69
2023-05-23T06:00:49.263Z,38893.72
2023-05-23T06:03:16.017Z,38857.81
2023-05-23T06:05:49.766Z,38853.81
2023-05-23T06:08:16.326Z,38871.75
2023-05-23T06:10:44.229Z,38865.78
2023-05-23T06:13:10.792Z,38853.81
2023-05-23T06:15:39.166Z,38873.75
2023-05-23T06:18:05.748Z,38847.84
2023-05-23T06:20:33.183Z,38841.84
2023-05-23T06:23:05.481Z,38871.75
2023-05-23T06:25:32.353Z,38873.75
2023-05-23T06:27:59.375Z,38873.75
2023-05-23T06:30:26.313Z,38861.78
2023-05-23T06:32:53.212Z,38865.78
2023-05-23T06:35:19.768Z,38875.75
2023-05-23T06:37:46.297Z,38889.72
2023-05-23T06:40:16.108Z,38869.78
2023-05-23T06:42:42.703Z,38873.75
2023-05-23T06:45:38.291Z,38877.75
2023-05-23T06:48:05.316Z,38833.88
2023-05-23T06:50:33.388Z,38855.81
2023-05-23T06:52:59.874Z,38839.84
2023-05-23T06:55:27.092Z,38879.75
2023-05-23T06:57:56.969Z,38881.75
2023-05-23T07:00:24.079Z,38879.75
2023-05-23T07:03:04.978Z,38865.78
2023-05-23T07:05:33.315Z,38897.69
2023-05-23T07:08:00.356Z,38909.66
2023-05-23T07:10:27.299Z,38893.72
2023-05-23T07:12:59.157Z,38909.66
2023-05-23T07:15:28.033Z,38897.69
2023-05-23T07:18:04.572Z,38895.69
2023-05-23T07:20:35.368Z,38901.69
2023-05-23T07:23:11.099Z,38831.88
2023-05-23T07:25:42.238Z,38801.97
2023-05-23T07:28:23.901Z,38811.94
2023-05-23T07:30:51.874Z,38825.91
2023-05-23T07:33:19.200Z,38837.84
2023-05-23T07:35:47.349Z,38835.88
2023-05-23T07:38:13.913Z,38835.88
2023-05-23T07:40:40.784Z,38813.94
2023-05-23T07:43:07.597Z,38809.94
2023-05-23T07:45:34.190Z,38809.94
2023-05-23T07:48:01.369Z,38770.03
2023-05-23T07:50:31.705Z,38782.00
2023-05-23T07:52:59.389Z,38776.03
2023-05-23T07:55:29.507Z,38774.03
2023-05-23T07:57:56.449Z,38778.03
2023-05-23T08:00:24.471Z,38782.00
2023-05-23T08:02:56.775Z,38758.06
2023-05-23T08:05:29.581Z,38730.16
2023-05-23T08:07:57.200Z,38752.09
2023-05-23T08:10:26.050Z,38726.16
2023-05-23T08:12:59.933Z,38714.19
2023-05-23T08:15:31.462Z,38718.19
2023-05-23T08:18:07.503Z,38738.13
2023-05-23T08:20:34.117Z,38714.19
2023-05-23T08:23:01.876Z,38730.16
2023-05-23T08:25:32.500Z,38738.13
2023-05-23T08:28:01.058Z,38718.19
2023-05-23T08:30:39.567Z,38694.25
2023-05-23T08:33:07.186Z,38696.25
2023-05-23T08:35:36.381Z,38702.22
2023-05-23T08:38:10.302Z,38708.22
2023-05-23T08:40:49.201Z,38678.31
2023-05-23T08:43:16.423Z,38676.31
2023-05-23T08:45:44.551Z,38640.41
2023-05-23T08:48:14.001Z,38674.31
2023-05-23T08:50:47.581Z,38658.34
2023-05-23T08:53:20.517Z,38638.41
2023-05-23T08:55:54.827Z,38630.44
2023-05-23T08:58:29.082Z,38642.41
2023-05-23T09:00:56.547Z,38622.47
2023-05-23T09:03:29.630Z,38598.53
2023-05-23T09:06:11.421Z,38582.56
2023-05-23T09:08:38.800Z,38562.63
2023-05-23T09:11:06.771Z,38574.59
2023-05-23T09:13:36.855Z,38542.69
2023-05-23T09:16:09.676Z,38494.81
2023-05-23T09:18:44.611Z,38526.72
2023-05-23T09:21:14.413Z,38518.75
2023-05-23T09:24:11.019Z,38494.81
2023-05-23T09:26:38.068Z,38500.81
2023-05-23T09:29:06.421Z,38458.91
2023-05-23T09:31:33.107Z,38466.91
2023-05-23T09:34:02.066Z,38464.91
2023-05-23T09:36:34.891Z,38458.91
2023-05-23T09:39:05.629Z,38458.91
2023-05-23T09:41:35.626Z,38419.03
2023-05-23T09:44:08.992Z,38423.03
2023-05-23T09:46:40.413Z,38423.03
2023-05-23T09:49:18.077Z,38421.03
2023-05-23T09:51:58.013Z,38403.09
2023-05-23T09:54:24.456Z,38407.06
2023-05-23T09:56:53.810Z,38405.06
2023-05-23T09:59:24.191Z,38379.16
2023-05-23T10:01:52.808Z,38371.19
2023-05-23T10:04:25.206Z,38379.16
2023-05-23T10:06:57.636Z,38407.06
2023-05-23T10:09:26.927Z,38458.91
2023-05-23T10:12:20.551Z,38460.91
2023-05-23T10:14:54.976Z,38450.94
2023-05-23T10:17:40.124Z,38456.94
2023-05-23T10:20:16.401Z,38438.97
2023-05-23T10:22:43.883Z,38415.06
2023-05-23T10:25:10.592Z,38472.88
2023-05-23T10:27:38.913Z,38440.97
2023-05-23T10:30:07.811Z,38411.06
2023-05-23T10:32:35.971Z,38450.94
2023-05-23T10:35:20.593Z,38454.94
2023-05-23T10:38:00.568Z,38470.88
2023-05-23T10:40:29.845Z,38482.84
2023-05-23T10:43:05.697Z,38450.94
2023-05-23T10:45:42.145Z,38417.03
2023-05-23T10:48:35.396Z,38435.00
2023-05-23T10:51:04.917Z,38460.91
2023-05-23T10:53:34.345Z,38472.88
2023-05-23T10:56:00.970Z,38421.03
2023-05-23T10:58:30.762Z,38466.91
2023-05-23T11:01:00.573Z,38442.97
2023-05-23T11:03:45.888Z,38405.06
2023-05-23T11:06:43.122Z,38407.06
2023-05-23T11:09:14.923Z,38433.00
2023-05-23T11:12:05.938Z,38393.13
2023-05-23T11:14:33.647Z,38446.97
2023-05-23T11:17:14.695Z,38407.06
2023-05-23T11:19:58.448Z,38415.06
2023-05-23T11:22:31.616Z,38347.25
2023-05-23T11:24:59.031Z,38355.22
2023-05-23T11:27:40.149Z,38355.22
2023-05-23T11:30:15.046Z,38335.28
2023-05-23T11:32:42.996Z,38407.06
2023-05-23T11:35:10.860Z,38383.13
2023-05-23T11:37:40.808Z,38431.00
2023-05-23T11:40:32.971Z,38472.88
2023-05-23T11:43:00.702Z,38435.00
2023-05-23T11:45:29.591Z,38440.97
2023-05-23T11:47:56.213Z,38427.00
2023-05-23T11:50:24.305Z,38472.88
2023-05-23T11:52:53.842Z,38417.03
2023-05-23T11:55:21.556Z,38468.91
2023-05-23T11:57:49.536Z,38411.06
2023-05-23T12:00:16.469Z,38442.97
2023-05-23T12:02:44.375Z,38526.72
2023-05-23T12:05:13.782Z,38498.81
2023-05-23T12:07:47.793Z,38574.59
2023-05-23T12:10:16.598Z,38554.66
2023-05-23T12:12:43.513Z,38514.75
2023-05-23T12:15:11.491Z,38538.69
2023-05-23T12:17:39.283Z,38590.56
2023-05-23T12:20:08.400Z,38602.50
2023-05-23T12:22:35.079Z,38642.41
2023-05-23T12:25:02.080Z,38628.44
2023-05-23T12:27:30.217Z,38644.41
2023-05-23T12:30:10.460Z,38598.53
2023-05-23T12:32:41.656Z,38530.72
2023-05-23T12:35:13.305Z,38494.81
2023-05-23T12:37:40.608Z,38506.78
2023-05-23T12:40:18.158Z,38514.75
2023-05-23T12:42:55.367Z,38454.94
2023-05-23T12:45:36.419Z,38450.94
2023-05-23T12:48:07.317Z,38371.19
2023-05-23T12:50:34.230Z,38343.25
2023-05-23T12:53:00.763Z,38371.19
2023-05-23T12:55:27.217Z,38395.09
2023-05-23T12:57:53.685Z,38411.06
2023-05-23T13:00:21.428Z,38492.81
2023-05-23T13:02:49.202Z,38534.72
2023-05-23T13:05:15.757Z,38520.75
2023-05-23T13:07:42.257Z,38379.16
2023-05-23T13:10:09.538Z,38359.22
2023-05-23T13:12:36.100Z,38379.16
2023-05-23T13:15:02.590Z,38351.22
2023-05-23T13:17:29.137Z,38387.13
2023-05-23T13:19:55.591Z,38407.06
2023-05-23T13:22:22.075Z,38415.06
2023-05-23T13:24:48.550Z,38361.19
2023-05-23T13:27:14.974Z,38299.38
2023-05-23T13:29:41.986Z,38313.34
2023-05-23T13:32:08.471Z,38315.34
2023-05-23T13:34:37.328Z,38387.13
2023-05-23T13:37:04.799Z,38389.13
2023-05-23T13:39:31.253Z,38385.13
2023-05-23T13:41:57.852Z,38345.25
2023-05-23T13:44:24.476Z,38291.41
2023-05-23T13:46:51.101Z,38307.34
2023-05-23T13:49:17.637Z,38299.38
2023-05-23T13:51:44.564Z,38271.47
2023-05-23T13:54:11.010Z,38275.44
2023-05-23T13:56:39.679Z,38187.72
2023-05-23T13:59:06.102Z,38207.66
2023-05-23T14:01:32.594Z,38219.63
2023-05-23T14:03:59.030Z,38199.69
2023-05-23T14:06:25.557Z,38155.81
2023-05-23T14:08:51.996Z,38271.47
2023-05-23T14:11:18.931Z,38315.34
2023-05-23T14:13:45.450Z,38311.34
2023-05-23T14:16:11.976Z,38351.22
2023-05-23T14:18:38.465Z,38323.31
2023-05-23T14:21:04.939Z,38293.41
2023-05-23T14:23:31.834Z,38299.38
2023-05-23T14:25:58.458Z,38173.75
2023-05-23T14:28:24.987Z,38211.63
2023-05-23T14:30:51.635Z,38267.47
2023-05-23T14:33:19.388Z,38267.47
2023-05-23T14:35:45.900Z,38243.53
2023-05-23T14:38:12.396Z,38243.53
2023-05-23T14:40:38.847Z,38243.53
2023-05-23T14:43:05.439Z,38255.50
2023-05-23T14:45:32.036Z,38265.47
2023-05-23T14:47:58.553Z,38219.63
2023-05-23T14:50:26.270Z,38159.78
2023-05-23T14:52:52.798Z,38193.69
2023-05-23T14:55:19.440Z,38167.78
2023-05-23T14:57:45.927Z,38149.81
2023-05-23T15:00:13.181Z,38099.97
2023-05-23T15:02:40.005Z,38111.94
2023-05-23T15:05:08.180Z,38064.06
2023-05-23T15:07:35.279Z,38086.00
2023-05-23T15:10:02.733Z,38082.03
2023-05-23T15:12:29.225Z,38072.06
2023-05-23T15:15:03.008Z,38123.91
2023-05-23T15:17:33.921Z,37992.28
2023-05-23T15:20:00.800Z,38006.25
2023-05-23T15:22:36.379Z,37964.38
2023-05-23T15:25:05.732Z,37980.31
2023-05-23T15:27:32.263Z,37980.31
2023-05-23T15:29:59.217Z,38018.22
2023-05-23T15:32:25.732Z,37980.31
2023-05-23T15:34:52.241Z,38004.25
2023-05-23T15:37:18.691Z,38020.22
2023-05-23T15:39:45.277Z,38022.19
2023-05-23T15:42:11.823Z,37892.59
2023-05-23T15:44:38.378Z,37872.66
2023-05-23T15:47:05.116Z,37864.69
2023-05-23T15:49:31.650Z,37814.81
2023-05-23T15:51:58.385Z,37780.94
2023-05-23T15:54:25.215Z,37832.78
2023-05-23T15:56:51.674Z,37858.69
2023-05-23T15:59:18.321Z,37820.81
2023-05-23T16:01:44.798Z,37808.84
2023-05-23T16:04:11.484Z,37753.03
2023-05-23T16:06:39.304Z,37749.03
2023-05-23T16:09:06.130Z,37784.91
2023-05-23T16:11:32.629Z,37774.94
2023-05-23T16:13:59.745Z,37794.88
2023-05-23T16:16:26.299Z,37812.84
2023-05-23T16:18:53.226Z,37790.91
2023-05-23T16:21:20.820Z,37768.97
2023-05-23T16:23:50.670Z,37806.84
2023-05-23T16:26:18.643Z,37802.88
2023-05-23T16:28:45.405Z,37820.81
2023-05-23T16:31:16.561Z,37796.88
2023-05-23T16:33:44.191Z,37766.97
2023-05-23T16:36:11.243Z,37749.03
2023-05-23T16:38:37.736Z,37766.97
2023-05-23T16:41:04.383Z,37755.00
2023-05-23T16:43:30.918Z,37780.94
2023-05-23T16:45:57.915Z,37772.97
2023-05-23T16:48:24.817Z,37757.00
2023-05-23T16:50:53.177Z,37772.97
2023-05-23T16:53:20.001Z,37772.97
2023-05-23T16:55:46.778Z,37753.03
2023-05-23T16:58:13.374Z,37757.00
2023-05-23T17:00:39.790Z,37761.00
2023-05-23T17:03:06.783Z,37713.13
2023-05-23T17:05:34.101Z,37737.06
2023-05-23T17:08:01.960Z,37693.19
2023-05-23T17:10:28.575Z,37725.09
2023-05-23T17:12:55.047Z,37703.16
2023-05-23T17:15:21.614Z,37693.19
2023-05-23T17:17:48.090Z,37693.19
2023-05-23T17:20:14.949Z,37657.31
2023-05-23T17:22:41.730Z,37675.25
2023-05-23T17:25:08.776Z,37621.44
2023-05-23T17:27:35.241Z,37613.44
2023-05-23T17:30:04.852Z,37605.47
2023-05-23T17:32:31.632Z,37589.53
2023-05-23T17:34:58.157Z,37557.63
2023-05-23T17:37:26.222Z,37573.56
2023-05-23T17:39:54.616Z,37597.50
2023-05-23T17:42:22.804Z,37563.59
2023-05-23T17:44:49.228Z,37559.63
2023-05-23T17:47:15.714Z,37573.56
2023-05-23T17:49:42.256Z,37561.63
2023-05-23T17:52:09.944Z,37555.63
2023-05-23T17:54:39.294Z,37533.69
2023-05-23T17:57:05.941Z,37521.75
2023-05-23T17:59:32.789Z,37447.97
2023-05-23T18:02:00.132Z,37503.78
2023-05-23T18:04:26.634Z,37535.69
2023-05-23T18:06:53.117Z,37513.75
2023-05-23T18:09:19.651Z,37487.84
2023-05-23T18:11:46.337Z,37475.88
2023-05-23T18:14:12.789Z,37445.97
2023-05-23T18:16:39.573Z,37461.94
2023-05-23T18:19:06.371Z,37378.19
2023-05-23T18:21:34.986Z,37442.00
2023-05-23T18:24:03.600Z,37408.09
2023-05-23T18:26:30.284Z,37400.13
2023-05-23T18:28:56.711Z,37342.31
2023-05-23T18:31:23.155Z,37394.13
2023-05-23T18:33:49.647Z,37376.19
2023-05-23T18:36:16.264Z,37380.19
2023-05-23T18:38:42.779Z,37390.16
2023-05-23T18:41:13.217Z,37432.03
2023-05-23T18:43:41.121Z,37388.16
2023-05-23T18:46:07.544Z,37396.13
2023-05-23T18:48:35.743Z,37362.25
2023-05-23T18:51:02.590Z,37342.31
2023-05-23T18:53:29.118Z,37338.31
2023-05-23T18:55:55.610Z,37334.34
2023-05-23T18:58:22.133Z,37332.34
2023-05-23T19:00:48.982Z,37346.28
2023-05-23T19:03:16.743Z,37312.41
2023-05-23T19:05:43.301Z,37282.50
2023-05-23T19:08:09.741Z,37294.47
2023-05-23T19:10:36.414Z,37298.44
2023-05-23T19:13:03.716Z,37302.44
2023-05-23T19:15:30.204Z,37278.50
2023-05-23T19:17:56.720Z,37266.56
2023-05-23T19:20:23.191Z,37258.56
2023-05-23T19:22:51.861Z,37238.63
2023-05-23T19:25:19.589Z,37248.59
2023-05-23T19:27:46.062Z,37230.66
2023-05-23T19:30:12.625Z,37234.66
2023-05-23T19:32:39.172Z,37234.66
2023-05-23T19:35:06.067Z,37234.66
2023-05-23T19:37:32.548Z,37224.69
2023-05-23T19:39:59.006Z,37190.78
2023-05-23T19:42:25.483Z,37208.75
2023-05-23T19:44:52.663Z,37202.75
2023-05-23T19:47:19.142Z,37202.75
2023-05-23T19:49:45.618Z,37206.75
2023-05-23T19:52:12.034Z,37214.72
2023-05-23T19:54:38.523Z,37182.81
2023-05-23T19:57:05.282Z,37176.84
2023-05-23T19:59:31.730Z,37186.81
2023-05-23T20:01:58.312Z,37210.72
2023-05-23T20:04:25.030Z,37184.81
2023-05-23T20:06:52.204Z,37194.78
2023-05-23T20:09:18.654Z,37212.72
2023-05-23T20:11:45.198Z,37202.75
2023-05-23T20:14:12.452Z,37222.69
2023-05-23T20:16:39.140Z,37186.81
2023-05-23T20:19:06.402Z,37180.81
2023-05-23T20:21:33.193Z,37182.81
2023-05-23T20:23:59.615Z,37202.75
2023-05-23T20:26:26.748Z,37208.75
2023-05-23T20:28:53.261Z,37210.72
2023-05-23T20:31:19.887Z,37204.75
2023-05-23T20:33:46.682Z,37210.72
2023-05-23T20:36:13.115Z,37170.84
2023-05-23T20:38:40.997Z,37178.84
2023-05-23T20:41:07.511Z,37176.84
2023-05-23T20:43:37.108Z,37174.84
2023-05-23T20:46:08.986Z,37156.91
2023-05-23T20:48:35.921Z,37154.91
2023-05-23T20:51:02.675Z,37142.94
2023-05-23T20:53:30.034Z,37132.97
2023-05-23T20:55:56.545Z,37162.88
2023-05-23T20:58:23.382Z,37142.94
2023-05-23T21:00:50.745Z,37176.84
2023-05-23T21:03:17.940Z,37119.03
2023-05-23T21:05:44.489Z,37115.03
2023-05-23T21:08:11.214Z,37127.00
2023-05-23T21:10:38.130Z,37146.94
2023-05-23T21:13:04.593Z,37138.97
2023-05-23T21:15:31.199Z,37097.09
2023-05-23T21:17:57.748Z,37132.97
2023-05-23T21:20:24.304Z,37047.25
2023-05-23T21:22:51.120Z,37097.09
2023-05-23T21:25:17.801Z,37105.06
2023-05-23T21:27:44.292Z,37099.09
2023-05-23T21:30:11.282Z,37073.19
2023-05-23T21:32:37.971Z,37083.16
2023-05-23T21:35:04.899Z,37109.06
2023-05-23T21:37:31.711Z,37075.16
2023-05-23T21:39:58.149Z,37079.16
2023-05-23T21:42:25.440Z,37075.16
2023-05-23T21:44:51.880Z,37061.22
2023-05-23T21:47:18.427Z,37081.16
2023-05-23T21:49:44.992Z,37063.22
2023-05-23T21:52:11.674Z,37091.13
2023-05-23T21:54:38.101Z,37059.22
2023-05-23T21:57:05.113Z,37045.28
2023-05-23T21:59:31.568Z,37059.22
2023-05-23T22:01:58.065Z,37059.22
2023-05-23T22:04:25.162Z,37059.22
2023-05-23T22:06:52.365Z,37051.25
2023-05-23T22:09:19.146Z,37027.31
2023-05-23T22:11:45.959Z,37027.31
2023-05-23T22:14:12.518Z,37027.31
2023-05-23T22:16:39.264Z,37045.28
2023-05-23T22:19:06.421Z,37011.38
2023-05-23T22:21:32.918Z,37045.28
2023-05-23T22:23:59.475Z,37035.31
2023-05-23T22:26:26.127Z,37043.28
2023-05-23T22:28:53.563Z,37015.38
2023-05-23T22:31:20.109Z,37039.28
2023-05-23T22:33:46.705Z,37007.41
2023-05-23T22:36:13.308Z,37039.28
2023-05-23T22:38:40.716Z,37027.31
2023-05-23T22:41:07.400Z,37027.31
2023-05-23T22:43:33.994Z,37043.28
2023-05-23T22:46:00.595Z,37015.38
2023-05-23T22:48:27.904Z,37045.28
2023-05-23T22:50:54.701Z,37027.31
2023-05-23T22:53:22.636Z,37007.41
2023-05-23T22:55:49.669Z,37005.41
2023-05-23T22:58:16.127Z,36987.47
2023-05-23T23:00:43.575Z,37023.34
2023-05-23T23:03:11.417Z,37027.31
2023-05-23T23:05:38.091Z,37027.31
2023-05-23T23:08:04.617Z,37007.41
2023-05-23T23:10:31.080Z,37003.41
2023-05-23T23:12:57.529Z,37019.34
2023-05-23T23:15:24.785Z,37011.38
2023-05-23T23:17:51.423Z,37019.34
2023-05-23T23:20:19.389Z,37009.38
2023-05-23T23:22:46.951Z,36991.44
2023-05-23T23:25:14.060Z,37021.34
2023-05-23T23:27:40.470Z,37023.34
2023-05-23T23:30:07.594Z,37035.31
2023-05-23T23:32:34.517Z,36995.44
2023-05-23T23:35:01.507Z,36971.50
2023-05-23T23:37:27.969Z,36999.41
2023-05-23T23:39:54.395Z,37015.38
2023-05-23T23:42:20.975Z,37021.34
2023-05-23T23:44:48.038Z,37039.28
2023-05-23T23:47:14.776Z,37029.31
2023-05-23T23:49:42.104Z,37019.34
2023-05-23T23:52:08.841Z,36997.44
2023-05-23T23:54:35.433Z,37015.38
2023-05-23T23:57:01.893Z,37023.34
2023-05-23T23:59:28.833Z,36983.47
